createdAt,value
2018-10-12T00:00:13.593Z,22.03
2018-10-12T00:02:43.296Z,29.23
2018-10-12T00:05:12.672Z,22.10
2018-10-12T00:07:42.304Z,23.17
2018-10-12T00:10:11.417Z,22.50
2018-10-12T00:12:40.494Z,20.97
2018-10-12T00:15:09.702Z,23.07
2018-10-12T00:17:38.386Z,26.07
2018-10-12T00:20:07.372Z,28.00
2018-10-12T00:22:36.067Z,22.22
2018-10-12T00:25:05.285Z,21.00
2018-10-12T00:27:33.968Z,24.00
2018-10-12T00:30:02.705Z,21.53
2018-10-12T00:32:31.370Z,23.27
2018-10-12T00:37:11.357Z,19.80
2018-10-12T00:39:40.052Z,15.73
2018-10-12T00:42:08.724Z,19.40
2018-10-12T00:44:37.432Z,20.50
2018-10-12T00:47:06.125Z,19.57
2018-10-12T00:49:34.833Z,23.30
2018-10-12T00:52:03.526Z,20.10
2018-10-12T00:54:32.219Z,23.10
2018-10-12T00:57:00.903Z,22.83
2018-10-12T00:59:29.599Z,20.40
2018-10-12T01:01:58.316Z,23.00
2018-10-12T01:04:27.020Z,17.50
2018-10-12T01:06:55.732Z,21.27
2018-10-12T01:09:24.427Z,20.03
2018-10-12T01:12:03.206Z,20.43
2018-10-12T01:14:31.874Z,17.00
2018-10-12T01:17:01.215Z,19.07
2018-10-12T01:19:29.925Z,22.47
2018-10-12T01:21:58.616Z,18.42
2018-10-12T01:24:27.441Z,16.57
2018-10-12T01:26:56.143Z,18.17
2018-10-12T01:29:24.848Z,19.43
2018-10-12T01:31:53.549Z,20.77
2018-10-12T01:34:22.244Z,17.17
2018-10-12T01:36:50.939Z,19.93
2018-10-12T01:39:19.637Z,20.90
2018-10-12T01:41:48.313Z,19.90
2018-10-12T01:44:17.016Z,18.70
2018-10-12T01:46:45.700Z,19.53
2018-10-12T01:49:14.399Z,16.97
2018-10-12T01:51:43.108Z,16.53
2018-10-12T01:54:11.840Z,17.07
2018-10-12T01:56:40.533Z,23.80
2018-10-12T01:59:09.215Z,17.40
2018-10-12T02:01:37.888Z,17.80
2018-10-12T02:04:06.612Z,15.27
2018-10-12T02:06:35.293Z,17.03
2018-10-12T02:09:04.680Z,18.37
2018-10-12T02:11:33.375Z,16.10
2018-10-12T02:14:02.088Z,19.65
2018-10-12T02:16:30.776Z,13.30
2018-10-12T02:18:59.452Z,20.93
2018-10-12T02:21:28.216Z,20.43
2018-10-12T02:23:56.895Z,14.07
2018-10-12T02:26:25.580Z,15.50
2018-10-12T02:28:55.176Z,18.03
2018-10-12T02:31:23.868Z,18.80
2018-10-12T02:33:52.656Z,16.10
2018-10-12T02:36:21.347Z,15.50
2018-10-12T02:38:50.032Z,19.17
2018-10-12T02:41:18.727Z,21.10
2018-10-12T02:43:47.517Z,20.70
2018-10-12T02:46:16.232Z,16.70
2018-10-12T02:48:44.912Z,18.00
2018-10-12T02:51:13.633Z,16.30
2018-10-12T02:53:42.313Z,18.23
2018-10-12T02:56:15.248Z,16.73
2018-10-12T02:58:43.940Z,17.50
2018-10-12T03:01:12.631Z,17.43
2018-10-12T03:03:41.301Z,14.87
2018-10-12T03:06:09.984Z,18.70
2018-10-12T03:08:38.763Z,16.63
2018-10-12T03:11:07.604Z,17.47
2018-10-12T03:13:36.303Z,19.33
2018-10-12T03:16:05.020Z,16.40
2018-10-12T03:18:33.700Z,17.47
2018-10-12T03:21:02.391Z,21.50
2018-10-12T03:23:31.175Z,17.20
2018-10-12T03:26:00.056Z,19.07
2018-10-12T03:28:30.175Z,18.67
2018-10-12T03:30:59.212Z,19.10
2018-10-12T03:33:28.219Z,20.47
2018-10-12T03:35:57.456Z,18.83
2018-10-12T03:38:26.160Z,15.17
2018-10-12T03:40:54.856Z,17.60
2018-10-12T03:43:23.539Z,16.33
2018-10-12T03:45:52.236Z,16.60
2018-10-12T03:48:20.911Z,15.47
2018-10-12T03:50:49.600Z,17.63
2018-10-12T03:53:18.440Z,15.10
2018-10-12T03:55:47.120Z,17.23
2018-10-12T03:58:15.810Z,19.00
2018-10-12T04:00:44.483Z,18.43
2018-10-12T04:03:13.196Z,18.47
2018-10-12T04:05:41.904Z,17.70
2018-10-12T04:08:10.588Z,17.93
2018-10-12T04:10:39.269Z,20.23
2018-10-12T04:13:08.332Z,21.07
2018-10-12T04:15:37.033Z,16.90
2018-10-12T04:18:05.706Z,17.97
2018-10-12T04:20:34.379Z,17.40
2018-10-12T04:23:03.052Z,22.20
2018-10-12T04:25:31.745Z,17.40
2018-10-12T04:28:00.419Z,17.37
2018-10-12T04:30:29.092Z,17.93
2018-10-12T04:32:57.846Z,20.00
2018-10-12T04:35:26.529Z,18.30
2018-10-12T04:37:55.205Z,17.57
2018-10-12T04:41:28.575Z,24.87
2018-10-12T04:44:02.592Z,17.13
2018-10-12T04:46:35.755Z,18.60
2018-10-12T04:49:05.937Z,17.20
2018-10-12T04:51:41.076Z,16.27
2018-10-12T04:54:09.813Z,20.90
2018-10-12T04:56:38.517Z,18.27
2018-10-12T04:59:07.192Z,17.07
2018-10-12T05:01:35.908Z,17.40
2018-10-12T05:04:04.589Z,18.10
2018-10-12T05:06:33.273Z,20.50
2018-10-12T05:09:01.949Z,19.27
2018-10-12T05:11:30.623Z,17.93
2018-10-12T05:13:59.296Z,16.77
2018-10-12T05:16:27.976Z,18.83
2018-10-12T05:18:56.665Z,15.23
2018-10-12T05:21:25.343Z,18.47
2018-10-12T05:23:54.108Z,16.20
2018-10-12T05:26:22.793Z,16.90
2018-10-12T05:28:51.540Z,16.50
2018-10-12T05:31:20.223Z,19.67
2018-10-12T05:33:48.912Z,19.73
2018-10-12T05:36:20.515Z,17.40
2018-10-12T05:38:49.230Z,17.37
2018-10-12T05:41:17.911Z,22.23
2018-10-12T05:43:46.696Z,15.80
2018-10-12T05:46:15.320Z,21.25
2018-10-12T05:48:55.538Z,18.23
2018-10-12T05:51:24.204Z,17.97
2018-10-12T05:53:52.884Z,19.27
2018-10-12T05:56:23.979Z,18.93
2018-10-12T05:58:53.036Z,15.07
2018-10-12T06:01:21.780Z,20.73
2018-10-12T06:03:50.418Z,21.70
2018-10-12T06:06:19.177Z,18.23
2018-10-12T06:08:47.860Z,19.43
2018-10-12T06:11:16.606Z,17.23
2018-10-12T06:13:45.228Z,17.97
2018-10-12T06:16:14.143Z,17.30
2018-10-12T06:18:42.864Z,20.07
2018-10-12T06:21:11.604Z,16.43
2018-10-12T06:23:40.321Z,15.63
2018-10-12T06:26:09.016Z,18.37
2018-10-12T06:28:37.835Z,16.77
2018-10-12T06:31:07.613Z,19.63
2018-10-12T06:33:36.340Z,15.77
2018-10-12T06:36:05.024Z,15.93
2018-10-12T06:38:33.708Z,17.43
2018-10-12T06:41:02.471Z,19.52
2018-10-12T06:43:31.079Z,17.50
2018-10-12T06:45:59.792Z,21.03
2018-10-12T06:48:28.452Z,18.07
2018-10-12T06:50:57.128Z,15.87
2018-10-12T06:53:25.819Z,16.83
2018-10-12T06:55:54.504Z,14.68
2018-10-12T06:58:23.636Z,17.67
2018-10-12T07:00:52.308Z,17.30
2018-10-12T07:03:20.996Z,16.57
2018-10-12T07:05:49.687Z,16.23
2018-10-12T07:08:18.372Z,18.57
2018-10-12T07:10:47.072Z,16.90
2018-10-12T07:13:15.765Z,19.40
2018-10-12T07:15:44.440Z,21.10
2018-10-12T07:18:13.280Z,21.82
2018-10-12T07:20:41.960Z,20.63
2018-10-12T07:23:10.652Z,16.67
2018-10-12T07:25:39.331Z,16.73
2018-10-12T07:28:08.023Z,16.07
2018-10-12T07:30:36.700Z,16.73
2018-10-12T07:33:05.388Z,15.60
2018-10-12T07:35:34.163Z,16.80
2018-10-12T07:38:02.767Z,16.23
2018-10-12T07:40:31.444Z,15.40
2018-10-12T07:43:00.136Z,13.90
2018-10-12T07:45:28.828Z,17.87
2018-10-12T07:47:57.515Z,12.93
2018-10-12T07:50:26.232Z,10.93
2018-10-12T07:52:54.964Z,17.37
2018-10-12T07:55:23.644Z,13.90
2018-10-12T07:57:52.336Z,15.00
2018-10-12T08:00:21.122Z,16.40
2018-10-12T08:02:49.720Z,10.67
2018-10-12T08:05:18.391Z,13.30
2018-10-12T08:07:47.076Z,16.48
2018-10-12T08:10:15.765Z,15.17
2018-10-12T08:12:44.452Z,14.90
2018-10-12T08:15:13.148Z,13.43
2018-10-12T08:17:41.840Z,15.30
2018-10-12T08:20:11.668Z,12.07
2018-10-12T08:22:40.512Z,12.85
2018-10-12T08:25:09.202Z,14.20
2018-10-12T08:27:37.884Z,11.73
2018-10-12T08:30:07.723Z,15.00
2018-10-12T08:32:36.716Z,10.30
2018-10-12T08:35:05.521Z,20.63
2018-10-12T08:37:34.217Z,13.27
2018-10-12T08:40:02.996Z,12.30
2018-10-12T08:42:31.700Z,13.03
2018-10-12T08:45:00.425Z,10.33
2018-10-12T08:47:29.107Z,11.23
2018-10-12T08:49:57.776Z,11.23
2018-10-12T08:52:26.460Z,13.13
2018-10-12T08:54:55.132Z,10.60
2018-10-12T08:57:24.080Z,15.13
2018-10-12T08:59:52.752Z,17.77
2018-10-12T09:02:21.434Z,7.23
2018-10-12T09:04:50.136Z,10.57
2018-10-12T09:07:18.812Z,11.63
2018-10-12T09:09:47.556Z,12.00
2018-10-12T09:12:16.188Z,10.37
2018-10-12T09:14:44.875Z,7.63
2018-10-12T09:17:13.561Z,9.67
2018-10-12T09:19:42.252Z,11.05
2018-10-12T09:22:10.927Z,9.50
2018-10-12T09:24:39.728Z,12.30
2018-10-12T09:27:08.423Z,10.37
2018-10-12T09:29:37.099Z,7.73
2018-10-12T09:32:05.832Z,10.57
2018-10-12T09:34:34.508Z,12.80
2018-10-12T09:37:03.264Z,10.43
2018-10-12T09:39:31.890Z,10.93
2018-10-12T09:42:00.795Z,9.67
2018-10-12T09:44:29.490Z,8.73
2018-10-12T09:46:58.189Z,10.30
2018-10-12T09:49:26.876Z,10.83
2018-10-12T09:51:55.572Z,11.63
2018-10-12T09:54:24.292Z,8.10
2018-10-12T09:56:58.454Z,6.80
2018-10-12T09:59:27.285Z,8.60
2018-10-12T10:02:01.724Z,9.43
2018-10-12T10:04:30.226Z,9.20
2018-10-12T10:06:59.523Z,7.17
2018-10-12T10:09:28.216Z,7.97
2018-10-12T10:11:57.300Z,7.77
2018-10-12T10:14:25.988Z,8.20
2018-10-12T10:16:54.671Z,8.20
2018-10-12T10:19:23.435Z,8.35
2018-10-12T10:21:52.124Z,8.83
2018-10-12T10:24:20.806Z,8.70
2018-10-12T10:26:49.468Z,7.47
2018-10-12T10:29:19.106Z,6.90
2018-10-12T10:31:47.744Z,9.53
2018-10-12T10:34:16.536Z,7.83
2018-10-12T10:36:45.204Z,7.13
2018-10-12T10:39:13.965Z,10.10
2018-10-12T10:41:42.646Z,9.30
2018-10-12T10:44:11.408Z,8.83
2018-10-12T10:46:40.072Z,6.07
2018-10-12T10:49:08.767Z,6.53
2018-10-12T10:51:37.456Z,7.90
2018-10-12T10:54:06.240Z,6.63
2018-10-12T10:56:35.016Z,8.33
2018-10-12T10:59:03.740Z,6.03
2018-10-12T11:01:32.412Z,5.77
2018-10-12T11:04:01.087Z,9.47
2018-10-12T11:06:29.899Z,8.50
2018-10-12T11:08:58.883Z,9.73
2018-10-12T11:11:27.620Z,6.60
2018-10-12T11:13:56.292Z,6.83
2018-10-12T11:16:24.972Z,9.23
2018-10-12T11:18:53.814Z,6.70
2018-10-12T11:21:22.799Z,6.60
2018-10-12T11:23:51.591Z,7.70
2018-10-12T11:26:20.276Z,6.00
2018-10-12T11:28:48.937Z,6.92
2018-10-12T11:31:17.643Z,6.33
2018-10-12T11:33:46.570Z,6.13
2018-10-12T11:36:15.828Z,6.50
2018-10-12T11:38:44.560Z,7.72
2018-10-12T11:41:13.228Z,6.30
2018-10-12T11:43:41.940Z,4.97
2018-10-12T11:46:11.036Z,6.30
2018-10-12T11:48:39.704Z,7.37
2018-10-12T11:51:08.616Z,6.63
2018-10-12T11:53:37.289Z,6.57
2018-10-12T11:56:05.972Z,5.50
2018-10-12T11:58:35.023Z,5.40
2018-10-12T12:01:04.908Z,5.47
2018-10-12T12:03:33.531Z,6.03
2018-10-12T12:06:02.215Z,5.83
2018-10-12T12:08:31.407Z,5.53
2018-10-12T12:11:01.693Z,6.00
2018-10-12T12:13:31.247Z,5.27
2018-10-12T12:15:59.984Z,4.97
2018-10-12T12:18:28.673Z,8.73
2018-10-12T12:20:57.963Z,4.73
2018-10-12T12:23:27.221Z,5.40
2018-10-12T12:25:55.896Z,5.80
2018-10-12T12:28:24.572Z,4.87
2018-10-12T12:30:54.369Z,6.83
2018-10-12T12:33:26.264Z,6.00
2018-10-12T12:35:55.287Z,4.47
2018-10-12T12:38:23.611Z,5.50
2018-10-12T12:40:53.617Z,4.23
2018-10-12T12:43:24.016Z,7.87
2018-10-12T12:45:52.700Z,5.03
2018-10-12T12:48:21.645Z,5.87
2018-10-12T12:50:52.790Z,5.83
2018-10-12T12:53:22.728Z,9.10
2018-10-12T12:55:51.408Z,11.27
2018-10-12T12:58:20.079Z,7.73
2018-10-12T13:00:51.429Z,8.20
2018-10-12T13:03:20.056Z,9.33
2018-10-12T13:05:48.733Z,5.80
2018-10-12T13:08:17.436Z,7.33
2018-10-12T13:10:47.090Z,9.20
2018-10-12T13:13:19.364Z,11.03
2018-10-12T13:15:48.077Z,8.28
2018-10-12T13:18:16.752Z,8.17
2018-10-12T13:20:46.847Z,12.58
2018-10-12T13:23:15.674Z,9.77
2018-10-12T13:25:44.933Z,9.20
2018-10-12T13:28:13.581Z,7.67
2018-10-12T13:30:46.378Z,6.37
2018-10-12T13:33:19.839Z,6.37
2018-10-12T13:35:53.224Z,8.95
2018-10-12T13:38:21.899Z,8.70
2018-10-12T13:40:56.234Z,5.00
2018-10-12T13:43:25.784Z,3.73
2018-10-12T13:46:06.702Z,6.93
2018-10-12T13:48:36.808Z,10.73
2018-10-12T13:51:05.516Z,10.43
2018-10-12T13:53:35.336Z,9.47
2018-10-12T13:56:04.012Z,9.20
2018-10-12T13:58:39.332Z,9.73
2018-10-12T14:01:08.021Z,16.60
2018-10-12T14:03:39.227Z,8.73
2018-10-12T14:06:07.912Z,11.93
2018-10-12T14:08:38.536Z,12.93
2018-10-12T14:11:07.227Z,13.37
2018-10-12T14:13:42.972Z,13.08
2018-10-12T14:16:11.639Z,9.90
2018-10-12T14:18:46.023Z,12.20
2018-10-12T14:21:19.060Z,12.27
2018-10-12T14:23:47.737Z,13.30
2018-10-12T14:26:19.484Z,19.92
2018-10-12T14:28:49.008Z,21.02
2018-10-12T14:31:22.984Z,14.90
2018-10-12T14:33:51.613Z,14.73
2018-10-12T14:36:23.970Z,15.15
2018-10-12T14:38:57.551Z,18.77
2018-10-12T14:41:29.592Z,16.00
2018-10-12T14:44:03.894Z,13.90
2018-10-12T14:46:37.692Z,14.90
2018-10-12T14:49:06.373Z,16.03
2018-10-12T14:51:35.800Z,16.23
2018-10-12T14:54:09.589Z,19.50
2018-10-12T14:56:42.244Z,21.67
2018-10-12T14:59:10.916Z,16.87
2018-10-12T15:01:42.192Z,15.57
2018-10-12T15:04:12.564Z,12.30
2018-10-12T15:06:46.058Z,18.67
2018-10-12T15:09:14.847Z,18.17
2018-10-12T15:11:45.837Z,23.10
2018-10-12T15:14:14.449Z,18.55
2018-10-12T15:16:48.440Z,16.80
2018-10-12T15:19:17.115Z,18.05
2018-10-12T15:21:49.548Z,54.07
2018-10-12T15:24:18.224Z,16.97
2018-10-12T15:26:51.556Z,26.97
2018-10-12T15:29:25.505Z,35.73
2018-10-12T15:31:55.039Z,27.43
2018-10-12T15:34:23.903Z,39.25
2018-10-12T15:37:01.764Z,51.87
2018-10-12T15:39:30.413Z,132.45
2018-10-12T15:42:00.580Z,111.20
2018-10-12T15:44:30.977Z,81.53
2018-10-12T15:47:05.515Z,57.98
2018-10-12T15:49:34.196Z,43.97
2018-10-12T15:54:44.688Z,37.60
2018-10-12T15:57:22.173Z,17.60
2018-10-12T15:59:50.844Z,20.47
2018-10-12T16:02:23.417Z,17.57
2018-10-12T16:04:52.093Z,14.80
2018-10-12T16:07:23.332Z,11.23
2018-10-12T16:09:56.336Z,12.77
2018-10-12T16:12:26.552Z,18.17
2018-10-12T16:14:55.239Z,13.62
2018-10-12T16:17:25.827Z,13.60
2018-10-12T16:19:54.499Z,20.87
2018-10-12T16:22:25.115Z,15.43
2018-10-12T16:25:07.011Z,12.58
2018-10-12T16:27:36.016Z,12.03
2018-10-12T16:30:04.808Z,17.40
2018-10-12T16:32:34.467Z,15.40
2018-10-12T16:35:03.460Z,17.13
2018-10-12T16:37:32.532Z,14.40
2018-10-12T16:40:05.816Z,16.97
2018-10-12T16:42:37.163Z,18.97
2018-10-12T16:45:05.924Z,23.90
2018-10-12T16:47:34.844Z,21.37
2018-10-12T16:50:06.556Z,26.93
2018-10-12T16:52:35.212Z,23.05
2018-10-12T16:55:03.884Z,25.33
2018-10-12T16:57:35.650Z,22.33
2018-10-12T17:00:05.900Z,14.27
2018-10-12T17:02:34.573Z,17.30
2018-10-12T17:05:03.240Z,12.80
2018-10-12T17:07:32.781Z,15.93
2018-10-12T17:10:03.140Z,14.77
2018-10-12T17:12:31.875Z,15.90
2018-10-12T17:15:00.511Z,16.60
2018-10-12T17:17:30.664Z,16.20
2018-10-12T17:20:00.335Z,13.67
2018-10-12T17:22:29.388Z,13.70
2018-10-12T17:24:58.060Z,19.73
2018-10-12T17:27:26.773Z,15.00
2018-10-12T17:29:56.818Z,15.38
2018-10-12T17:32:26.028Z,15.50
2018-10-12T17:34:54.708Z,11.67
2018-10-12T17:37:23.716Z,15.10
2018-10-12T17:39:53.252Z,14.43
2018-10-12T17:42:22.400Z,15.97
2018-10-12T17:44:51.281Z,17.70
2018-10-12T17:47:19.963Z,14.20
2018-10-12T17:49:48.632Z,15.93
2018-10-12T17:52:17.604Z,16.40
2018-10-12T17:54:46.280Z,17.60
2018-10-12T17:57:14.964Z,16.62
2018-10-12T17:59:43.644Z,14.10
2018-10-12T18:02:12.541Z,16.97
2018-10-12T18:04:41.380Z,15.23
2018-10-12T18:07:10.065Z,17.33
2018-10-12T18:09:38.744Z,18.37
2018-10-12T18:12:07.568Z,21.73
2018-10-12T18:14:36.324Z,16.17
2018-10-12T18:17:05.032Z,15.43
2018-10-12T18:19:33.756Z,15.10
2018-10-12T18:22:02.417Z,19.43
2018-10-12T18:24:31.120Z,17.92
2018-10-12T18:27:00.168Z,19.83
2018-10-12T18:29:28.941Z,18.20
2018-10-12T18:31:57.646Z,16.67
2018-10-12T18:34:26.328Z,18.67
2018-10-12T18:36:55.143Z,14.57
2018-10-12T18:39:23.900Z,17.60
2018-10-12T18:41:52.631Z,13.60
2018-10-12T18:44:22.121Z,16.97
2018-10-12T18:46:50.796Z,19.07
2018-10-12T18:49:19.480Z,18.43
2018-10-12T18:51:48.203Z,18.57
2018-10-12T18:54:17.040Z,11.73
2018-10-12T18:56:45.649Z,22.22
2018-10-12T18:59:14.336Z,15.85
2018-10-12T19:01:43.279Z,13.08
2018-10-12T19:04:12.014Z,16.93
2018-10-12T19:06:40.745Z,15.13
2018-10-12T19:09:10.191Z,15.53
2018-10-12T19:11:39.887Z,16.30
2018-10-12T19:14:08.828Z,14.50
2018-10-12T19:16:37.690Z,12.93
2018-10-12T19:19:06.695Z,13.95
2018-10-12T19:21:35.371Z,12.47
2018-10-12T19:24:04.126Z,15.83
2018-10-12T19:26:32.767Z,17.27
2018-10-12T19:29:01.482Z,17.67
2018-10-12T19:31:30.220Z,13.47
2018-10-12T19:33:58.848Z,15.08
2018-10-12T19:36:27.556Z,13.23
2018-10-12T19:38:56.247Z,13.23
2018-10-12T19:41:24.924Z,16.17
2018-10-12T19:43:53.683Z,13.20
2018-10-12T19:46:22.388Z,19.47
2018-10-12T19:48:51.072Z,14.03
2018-10-12T19:51:19.770Z,15.03
2018-10-12T19:53:48.456Z,15.95
2018-10-12T19:56:17.159Z,20.40
2018-10-12T19:58:45.851Z,20.17
2018-10-12T20:01:14.533Z,18.12
2018-10-12T20:03:43.264Z,15.98
2018-10-12T20:06:11.936Z,17.70
2018-10-12T20:08:40.776Z,18.37
2018-10-12T20:11:09.480Z,18.83
2018-10-12T20:13:38.160Z,15.37
2018-10-12T20:16:07.004Z,17.40
2018-10-12T20:18:35.702Z,17.37
2018-10-12T20:21:04.392Z,13.75
2018-10-12T20:23:33.076Z,17.40
2018-10-12T20:26:01.777Z,16.17
2018-10-12T20:28:30.465Z,17.70
2018-10-12T20:30:59.139Z,16.97
2018-10-12T20:33:27.834Z,20.07
2018-10-12T20:35:56.548Z,16.40
2018-10-12T20:38:25.250Z,20.17
2018-10-12T20:40:53.916Z,16.60
2018-10-12T20:43:22.604Z,14.60
2018-10-12T20:45:51.316Z,17.27
2018-10-12T20:48:20.004Z,20.13
2018-10-12T20:50:48.749Z,17.50
2018-10-12T20:53:17.384Z,17.30
2018-10-12T20:55:46.068Z,18.98
2018-10-12T20:58:14.768Z,17.47
2018-10-12T21:00:44.790Z,14.47
2018-10-12T21:03:13.521Z,19.57
2018-10-12T21:05:42.468Z,17.40
2018-10-12T21:08:11.164Z,17.53
2018-10-12T21:10:39.880Z,13.63
2018-10-12T21:13:08.588Z,14.87
2018-10-12T21:15:37.305Z,14.43
2018-10-12T21:18:06.211Z,21.40
2018-10-12T21:20:34.808Z,14.13
2018-10-12T21:23:03.493Z,16.90
2018-10-12T21:25:32.175Z,16.67
2018-10-12T21:28:00.888Z,17.10
2018-10-12T21:30:29.569Z,14.63
2018-10-12T21:32:58.243Z,14.73
2018-10-12T21:35:26.944Z,15.23
2018-10-12T21:37:55.619Z,17.27
2018-10-12T21:40:24.391Z,14.43
2018-10-12T21:42:53.021Z,17.70
2018-10-12T21:45:21.988Z,14.10
2018-10-12T21:47:50.697Z,17.87
2018-10-12T21:50:19.763Z,20.63
2018-10-12T21:52:48.429Z,17.57
2018-10-12T21:55:17.116Z,18.77
2018-10-12T21:57:45.808Z,16.97
2018-10-12T22:00:14.500Z,17.10
2018-10-12T22:02:43.196Z,16.67
2018-10-12T22:07:47.062Z,16.03
2018-10-12T22:10:15.760Z,19.13
2018-10-12T22:12:44.460Z,25.80
2018-10-12T22:15:13.181Z,17.35
2018-10-12T22:17:41.854Z,18.17
2018-10-12T22:20:10.547Z,15.43
2018-10-12T22:22:39.235Z,20.20
2018-10-12T22:25:07.924Z,21.97
2018-10-12T22:27:36.644Z,21.37
2018-10-12T22:30:06.295Z,18.00
2018-10-12T22:32:35.009Z,18.90
2018-10-12T22:35:03.725Z,19.23
2018-10-12T22:37:32.448Z,18.80
2018-10-12T22:40:01.135Z,15.00
2018-10-12T22:42:29.836Z,16.83
2018-10-12T22:44:58.545Z,17.83
2018-10-12T22:47:28.136Z,20.60
2018-10-12T22:49:56.833Z,18.83
2018-10-12T22:52:25.522Z,19.23
2018-10-12T22:54:54.228Z,19.12
2018-10-12T22:57:22.956Z,14.30
2018-10-12T22:59:51.644Z,22.30
2018-10-12T23:02:20.332Z,20.07
2018-10-12T23:04:49.029Z,20.13
2018-10-12T23:07:17.733Z,21.83
2018-10-12T23:09:46.423Z,16.73
2018-10-12T23:12:15.139Z,21.17
2018-10-12T23:14:43.852Z,20.30
2018-10-12T23:17:12.545Z,20.43
2018-10-12T23:19:41.232Z,20.37
2018-10-12T23:22:09.919Z,19.67
2018-10-12T23:24:38.612Z,20.57
2018-10-12T23:27:07.313Z,21.47
2018-10-12T23:29:36.008Z,20.73
2018-10-12T23:32:04.713Z,20.23
2018-10-12T23:34:33.409Z,19.77
2018-10-12T23:37:02.132Z,20.62
2018-10-12T23:39:31.264Z,19.70
2018-10-12T23:41:59.945Z,23.37
2018-10-12T23:44:28.712Z,19.43
2018-10-12T23:46:57.396Z,22.27
2018-10-12T23:49:26.152Z,20.60
2018-10-12T23:51:54.824Z,19.40
2018-10-12T23:54:23.514Z,19.53
2018-10-12T23:56:52.191Z,19.07
2018-10-12T23:59:20.876Z,20.63
